Time;durP1;ratioP1;P1;durP2;ratioP2;P2;SDS_P1;SDS_P2;PMS_P1;PMS_P2;Temp;Humidity;BMP_temperature;BMP_pressure;BME280_temperature;BME280_humidity;BME280_pressure;Samples;Min_cycle;Max_cycle;Signal;HPM_P1;HPM_P2
2023/03/11 00:00:13;;;;;;;;;;;;;;;3.05;54.86;96470.81;5096465;28;19923;-57
2023/03/11 00:02:42;;;;;;;;;;;;;;;3.20;54.64;96496.56;5098784;28;19934;-58
2023/03/11 00:05:11;;;;;;;;;;;;;;;3.02;53.63;96482.13;5077760;28;20580;-57
2023/03/11 00:07:39;;;;;;;;;;;;;;;2.98;54.47;96487.28;5106722;28;20360;-57
2023/03/11 00:10:10;;;;;;;;;;;;;;;2.88;54.27;96474.09;5100172;28;19931;-57
2023/03/11 00:12:38;;;;;;;;;;;;;;;2.80;54.99;96488.19;5097306;28;19951;-57
2023/03/11 00:15:07;;;;;;;;;;;;;;;2.89;54.59;96503.31;5095242;28;19924;-57
2023/03/11 00:17:34;;;;;;;;;;;;;;;2.91;54.64;96520.97;5080243;28;19924;-58
2023/03/11 00:20:03;;;;;;;;;;;;;;;2.91;54.66;96520.97;5103570;28;19999;-57
2023/03/11 00:22:31;;;;;;;;;;;;;;;2.72;54.94;96510.34;5096275;28;19924;-57
2023/03/11 00:25:00;;;;;;;;;;;;;;;2.61;55.32;96517.75;5104987;28;19924;-57
2023/03/11 00:27:29;;;;;;;;;;;;;;;2.65;55.30;96518.75;5102176;28;19928;-59
2023/03/11 00:29:58;;;;;;;;;;;;;;;2.82;55.98;96515.50;5112126;28;20322;-57
2023/03/11 00:32:25;;;;;;;;;;;;;;;2.75;55.35;96545.38;5104444;28;19924;-57
2023/03/11 00:34:53;;;;;;;;;;;;;;;2.81;54.72;96530.78;5089799;28;19977;-56
2023/03/11 00:37:21;;;;;;;;;;;;;;;2.74;54.70;96548.38;5105986;28;19931;-57
2023/03/11 00:39:49;;;;;;;;;;;;;;;2.76;54.74;96546.19;5079030;28;19923;-57
2023/03/11 00:42:17;;;;;;;;;;;;;;;2.78;54.71;96554.75;5108115;28;20373;-57
2023/03/11 00:44:46;;;;;;;;;;;;;;;2.73;54.39;96565.56;5088675;28;19981;-57
2023/03/11 00:47:14;;;;;;;;;;;;;;;2.63;54.70;96563.81;5095829;28;19924;-59
2023/03/11 00:49:42;;;;;;;;;;;;;;;2.68;54.42;96571.00;5083402;28;19924;-59
2023/03/11 00:52:10;;;;;;;;;;;;;;;2.61;54.48;96556.09;5099166;28;19924;-57
2023/03/11 00:54:38;;;;;;;;;;;;;;;2.70;55.09;96579.53;5082602;28;19923;-57
2023/03/11 00:57:06;;;;;;;;;;;;;;;2.73;55.53;96570.91;5089011;28;19924;-57
2023/03/11 00:59:34;;;;;;;;;;;;;;;2.68;55.74;96579.03;5106421;28;20377;-57
2023/03/11 01:02:03;;;;;;;;;;;;;;;2.67;55.96;96577.44;5076286;28;19947;-60
2023/03/11 01:04:31;;;;;;;;;;;;;;;2.69;55.62;96577.94;5088781;28;19924;-56
2023/03/11 01:07:00;;;;;;;;;;;;;;;2.48;55.79;96588.97;5103372;28;19976;-57
2023/03/11 01:09:28;;;;;;;;;;;;;;;2.52;56.04;96595.38;5096213;28;19931;-57
2023/03/11 01:11:56;;;;;;;;;;;;;;;2.53;56.29;96606.88;5078579;28;19924;-57
2023/03/11 01:14:23;;;;;;;;;;;;;;;2.52;56.30;96607.97;5098682;28;19931;-59
2023/03/11 01:16:52;;;;;;;;;;;;;;;2.61;56.23;96615.06;5081788;28;19934;-57
2023/03/11 01:19:21;;;;;;;;;;;;;;;2.64;55.49;96619.03;5086130;28;19967;-57
2023/03/11 01:21:49;;;;;;;;;;;;;;;2.53;55.93;96618.41;5099136;28;19928;-57
2023/03/11 01:24:17;;;;;;;;;;;;;;;2.44;56.61;96625.50;5078290;28;19931;-57
2023/03/11 01:26:44;;;;;;;;;;;;;;;2.41;56.75;96642.19;5103234;28;19931;-57
2023/03/11 01:29:12;;;;;;;;;;;;;;;2.35;57.82;96628.03;5101279;28;19968;-57
2023/03/11 01:31:40;;;;;;;;;;;;;;;2.32;57.30;96625.94;5101583;28;20018;-57
2023/03/11 01:34:08;;;;;;;;;;;;;;;2.38;57.63;96632.03;5108240;28;19924;-57
2023/03/11 01:36:37;;;;;;;;;;;;;;;2.24;57.42;96625.81;5083832;28;19928;-61
2023/03/11 01:39:05;;;;;;;;;;;;;;;2.20;58.02;96630.13;5089461;28;19936;-57
2023/03/11 01:41:33;;;;;;;;;;;;;;;2.27;57.81;96634.03;5077349;28;19931;-62
2023/03/11 01:44:03;;;;;;;;;;;;;;;2.15;57.71;96627.53;5083515;28;19971;-58
2023/03/11 01:46:36;;;;;;;;;;;;;;;2.14;58.02;96620.56;5080082;28;19936;-57
2023/03/11 01:49:04;;;;;;;;;;;;;;;2.14;58.54;96620.56;5076129;28;19931;-58
2023/03/11 01:51:35;;;;;;;;;;;;;;;2.26;58.36;96620.94;5084205;28;19924;-57
2023/03/11 01:54:09;;;;;;;;;;;;;;;2.15;59.04;96628.31;5076164;28;20381;-58
2023/03/11 01:56:38;;;;;;;;;;;;;;;2.20;59.16;96636.28;5087096;28;20388;-58
2023/03/11 01:59:05;;;;;;;;;;;;;;;2.03;59.58;96639.47;5078974;28;19931;-58
2023/03/11 02:01:33;;;;;;;;;;;;;;;2.08;60.12;96646.63;5083507;28;19928;-58
2023/03/11 02:04:04;;;;;;;;;;;;;;;2.14;59.89;96648.16;5086387;28;19924;-57
2023/03/11 02:06:32;;;;;;;;;;;;;;;2.22;59.88;96641.34;5084489;28;20073;-56
2023/03/11 02:08:59;;;;;;;;;;;;;;;2.15;60.40;96651.63;5071602;28;19967;-57
2023/03/11 02:11:29;;;;;;;;;;;;;;;2.23;60.44;96646.41;5104629;28;19924;-57
2023/03/11 02:13:59;;;;;;;;;;;;;;;2.19;60.68;96663.38;5083112;28;19923;-58
2023/03/11 02:16:27;;;;;;;;;;;;;;;2.14;60.56;96655.41;5081332;28;20010;-57
2023/03/11 02:18:55;;;;;;;;;;;;;;;2.12;60.75;96655.66;5085040;28;19928;-56
2023/03/11 02:21:23;;;;;;;;;;;;;;;2.04;61.11;96656.31;5069419;28;19935;-56
2023/03/11 02:23:53;;;;;;;;;;;;;;;1.96;61.19;96660.41;5082073;28;19931;-57
2023/03/11 02:26:22;;;;;;;;;;;;;;;2.00;61.61;96645.38;5076864;28;19924;-57
2023/03/11 02:28:53;;;;;;;;;;;;;;;1.86;61.55;96649.81;5060973;28;19951;-57
2023/03/11 02:31:23;;;;;;;;;;;;;;;1.94;61.92;96657.25;5067114;28;19974;-57
2023/03/11 02:33:54;;;;;;;;;;;;;;;1.86;61.98;96667.78;5068157;28;19931;-58
2023/03/11 02:36:36;;;;;;;;;;;;;;;1.94;62.21;96665.28;5064135;28;20472;-57
2023/03/11 02:39:05;;;;;;;;;;;;;;;1.86;62.32;96665.09;5060133;28;20382;-56
2023/03/11 02:41:35;;;;;;;;;;;;;;;1.93;62.27;96677.09;5059854;28;20010;-58
2023/03/11 02:44:06;;;;;;;;;;;;;;;1.98;62.33;96677.03;5065728;28;19924;-57
2023/03/11 02:46:34;;;;;;;;;;;;;;;1.93;62.23;96677.09;5060340;28;19925;-57
2023/03/11 02:49:02;;;;;;;;;;;;;;;1.84;62.71;96681.47;5075816;28;19940;-57
2023/03/11 02:51:30;;;;;;;;;;;;;;;1.86;62.23;96702.59;5075166;28;20369;-58
2023/03/11 02:53:59;;;;;;;;;;;;;;;1.93;61.83;96684.31;5075963;28;20377;-57
2023/03/11 02:56:29;;;;;;;;;;;;;;;1.79;62.29;96692.22;5084217;28;19931;-57
2023/03/11 02:58:57;;;;;;;;;;;;;;;1.85;62.82;96693.75;5086342;28;19924;-57
2023/03/11 03:01:26;;;;;;;;;;;;;;;1.71;62.70;96695.53;5075527;28;19931;-59
2023/03/11 03:03:54;;;;;;;;;;;;;;;1.79;62.54;96694.91;5082417;28;19971;-56
2023/03/11 03:06:27;;;;;;;;;;;;;;;1.76;62.78;96701.63;5088252;28;19924;-58
2023/03/11 03:08:55;;;;;;;;;;;;;;;1.72;62.62;96705.16;5091574;28;19985;-57
2023/03/11 03:11:23;;;;;;;;;;;;;;;1.71;62.75;96703.56;5099999;28;19924;-57
2023/03/11 03:13:51;;;;;;;;;;;;;;;1.73;62.59;96702.19;5072031;28;19943;-57
2023/03/11 03:16:18;;;;;;;;;;;;;;;1.86;62.30;96705.28;5078930;28;19928;-56
2023/03/11 03:18:49;;;;;;;;;;;;;;;1.80;61.86;96704.53;5099780;28;19924;-57
2023/03/11 03:21:16;;;;;;;;;;;;;;;1.71;62.47;96714.28;5078336;28;19932;-57
2023/03/11 03:23:45;;;;;;;;;;;;;;;1.66;61.96;96714.34;5090985;28;19924;-57
2023/03/11 03:26:13;;;;;;;;;;;;;;;1.61;62.15;96719.72;5102168;28;19924;-59
2023/03/11 03:28:42;;;;;;;;;;;;;;;1.63;62.22;96717.56;5076144;28;20385;-59
2023/03/11 03:31:11;;;;;;;;;;;;;;;1.62;62.04;96724.81;5076561;28;19937;-56
2023/03/11 03:33:41;;;;;;;;;;;;;;;1.55;61.99;96724.34;5075894;28;19951;-57
2023/03/11 03:36:11;;;;;;;;;;;;;;;1.55;61.74;96727.81;5074856;28;20405;-56
2023/03/11 03:38:47;;;;;;;;;;;;;;;1.62;61.46;96740.06;5081947;28;20644;-57
2023/03/11 03:41:15;;;;;;;;;;;;;;;1.57;61.12;96746.25;5075670;28;19931;-57
2023/03/11 03:43:44;;;;;;;;;;;;;;;1.52;61.48;96739.06;5075128;28;19970;-57
2023/03/11 03:46:12;;;;;;;;;;;;;;;1.54;61.14;96736.09;5089096;28;20305;-57
2023/03/11 03:48:46;;;;;;;;;;;;;;;1.36;61.08;96742.97;5080604;28;19924;-57
2023/03/11 03:51:16;;;;;;;;;;;;;;;1.43;61.46;96743.44;5093075;28;19981;-57
2023/03/11 03:54:19;;;;;;;;;;;;;;;1.51;61.33;96742.84;5071488;28;20584;-61
2023/03/11 03:56:47;;;;;;;;;;;;;;;1.44;61.37;96747.72;5081660;28;19924;-57
2023/03/11 03:59:15;;;;;;;;;;;;;;;1.58;60.63;96750.53;5095489;28;19924;-58
2023/03/11 04:01:49;;;;;;;;;;;;;;;1.51;60.42;96753.53;5069816;28;19967;-57
2023/03/11 04:04:18;;;;;;;;;;;;;;;1.47;60.85;96760.53;5089308;28;19924;-58
2023/03/11 04:06:47;;;;;;;;;;;;;;;1.49;60.76;96760.22;5081839;28;19948;-56
2023/03/11 04:09:17;;;;;;;;;;;;;;;1.56;60.78;96761.53;5083781;28;19925;-57
2023/03/11 04:11:45;;;;;;;;;;;;;;;1.49;59.88;96770.94;5095823;28;20411;-57
2023/03/11 04:14:15;;;;;;;;;;;;;;;1.44;60.31;96771.81;5078658;28;20380;-57
2023/03/11 04:16:50;;;;;;;;;;;;;;;1.51;60.27;96777.63;5081317;28;19928;-56
2023/03/11 04:19:18;;;;;;;;;;;;;;;1.48;60.15;96780.06;5084183;28;19931;-57
2023/03/11 04:21:47;;;;;;;;;;;;;;;1.47;60.40;96784.63;5087412;28;19924;-57
2023/03/11 04:24:16;;;;;;;;;;;;;;;1.47;60.36;96789.97;5082299;28;20372;-58
2023/03/11 04:26:44;;;;;;;;;;;;;;;1.55;60.26;96796.63;5080980;28;19974;-57
2023/03/11 04:29:16;;;;;;;;;;;;;;;1.47;60.19;96800.66;5092331;28;19924;-57
2023/03/11 04:31:48;;;;;;;;;;;;;;;1.43;60.52;96793.47;5081202;28;19949;-58
2023/03/11 04:34:17;;;;;;;;;;;;;;;1.37;60.46;96800.75;5098318;28;19932;-57
2023/03/11 04:36:45;;;;;;;;;;;;;;;1.52;60.55;96805.19;5100136;28;19925;-58
2023/03/11 04:39:16;;;;;;;;;;;;;;;1.40;60.28;96816.25;5097517;28;20417;-56
2023/03/11 04:41:45;;;;;;;;;;;;;;;1.42;59.97;96819.44;5079594;28;19928;-57
2023/03/11 04:44:17;;;;;;;;;;;;;;;1.35;60.78;96818.97;5080794;28;19936;-57
2023/03/11 04:46:46;;;;;;;;;;;;;;;1.45;60.60;96813.53;5091887;28;19924;-57
2023/03/11 04:49:14;;;;;;;;;;;;;;;1.47;60.48;96814.06;5095952;28;19974;-58
2023/03/11 04:51:43;;;;;;;;;;;;;;;1.46;60.55;96817.81;5079364;28;19935;-57
2023/03/11 04:54:13;;;;;;;;;;;;;;;1.55;60.73;96824.19;5079044;28;20023;-57
2023/03/11 04:56:43;;;;;;;;;;;;;;;1.36;60.58;96817.88;5078386;28;19990;-59
2023/03/11 04:59:11;;;;;;;;;;;;;;;1.38;61.06;96818.41;5081299;28;20090;-57
2023/03/11 05:01:40;;;;;;;;;;;;;;;1.40;61.08;96821.63;5089643;28;19925;-57
2023/03/11 05:04:10;;;;;;;;;;;;;;;1.32;61.33;96827.53;5089920;28;19928;-58
2023/03/11 05:06:40;;;;;;;;;;;;;;;1.52;60.81;96823.94;5078502;28;19931;-58
2023/03/11 05:09:08;;;;;;;;;;;;;;;1.54;61.10;96832.47;5079334;28;20354;-60
2023/03/11 05:11:39;;;;;;;;;;;;;;;1.58;60.84;96831.63;5083407;28;19928;-57
2023/03/11 05:14:08;;;;;;;;;;;;;;;1.44;61.12;96835.22;5102153;28;20359;-58
2023/03/11 05:16:36;;;;;;;;;;;;;;;1.54;61.44;96843.97;5091315;28;19931;-57
2023/03/11 05:19:29;;;;;;;;;;;;;;;1.36;61.28;96847.31;5079958;28;19931;-57
2023/03/11 05:21:54;;;;;;;;;;;;;;;1.40;61.83;96843.03;5099659;28;20369;-57
2023/03/11 05:24:25;;;;;;;;;;;;;;;1.46;61.53;96852.59;5080511;28;20450;-58
2023/03/11 05:26:52;;;;;;;;;;;;;;;1.45;61.28;96855.56;5083231;28;20388;-57
2023/03/11 05:29:22;;;;;;;;;;;;;;;1.49;61.46;96857.41;5079926;28;19925;-57
2023/03/11 05:31:50;;;;;;;;;;;;;;;1.46;61.45;96857.16;5085746;28;19933;-57
2023/03/11 05:34:18;;;;;;;;;;;;;;;1.47;61.59;96861.44;5084469;28;19955;-56
2023/03/11 05:36:46;;;;;;;;;;;;;;;1.47;61.83;96870.25;5096473;28;19924;-61
2023/03/11 05:39:14;;;;;;;;;;;;;;;1.54;61.46;96876.09;5102294;28;20015;-57
2023/03/11 05:41:42;;;;;;;;;;;;;;;1.62;61.38;96871.25;5092989;28;19965;-57
2023/03/11 05:44:10;;;;;;;;;;;;;;;1.61;61.07;96869.66;5087217;28;20290;-57
2023/03/11 05:46:39;;;;;;;;;;;;;;;1.76;60.84;96877.56;5083992;28;20364;-57
2023/03/11 05:49:07;;;;;;;;;;;;;;;1.74;61.03;96877.03;5078883;28;20012;-56
2023/03/11 05:51:36;;;;;;;;;;;;;;;1.78;60.98;96880.75;5075611;28;19962;-57
2023/03/11 05:54:06;;;;;;;;;;;;;;;1.81;61.04;96880.19;5082793;28;19924;-58
2023/03/11 05:56:38;;;;;;;;;;;;;;;1.71;61.27;96882.97;5072953;28;19924;-57
2023/03/11 05:59:07;;;;;;;;;;;;;;;1.98;60.50;96885.16;5084384;28;20019;-56
2023/03/11 06:01:36;;;;;;;;;;;;;;;1.94;59.84;96892.94;5080515;28;19936;-56
2023/03/11 06:04:05;;;;;;;;;;;;;;;1.72;60.57;96887.22;5082986;28;19995;-57
2023/03/11 06:06:35;;;;;;;;;;;;;;;1.67;60.84;96889.94;5079942;28;19929;-57
2023/03/11 06:09:03;;;;;;;;;;;;;;;1.68;61.30;96891.53;5090210;28;19929;-57
2023/03/11 06:11:33;;;;;;;;;;;;;;;1.51;61.27;96881.22;5098643;28;19935;-61
2023/03/11 06:14:01;;;;;;;;;;;;;;;1.58;61.92;96887.06;5078408;28;19928;-57
2023/03/11 06:16:29;;;;;;;;;;;;;;;1.71;61.34;96901.72;5077668;28;19928;-56
2023/03/11 06:19:00;;;;;;;;;;;;;;;1.74;61.03;96912.63;5081758;28;19928;-57
2023/03/11 06:21:33;;;;;;;;;;;;;;;1.78;60.91;96902.19;5102198;28;19935;-57
2023/03/11 06:24:01;;;;;;;;;;;;;;;1.75;60.63;96916.91;5085964;28;19954;-57
2023/03/11 06:26:31;;;;;;;;;;;;;;;1.81;60.61;96923.03;5086577;28;19927;-57
2023/03/11 06:28:59;;;;;;;;;;;;;;;1.89;60.57;96929.69;5080358;28;19925;-57
2023/03/11 06:31:28;;;;;;;;;;;;;;;1.88;60.30;96938.81;5075065;28;19925;-56
2023/03/11 06:34:04;;;;;;;;;;;;;;;1.89;60.22;96943.06;5101783;28;20397;-56
2023/03/11 06:36:32;;;;;;;;;;;;;;;1.91;60.05;96939.03;5078934;28;19924;-56
2023/03/11 06:39:01;;;;;;;;;;;;;;;1.95;60.04;96934.72;5096279;28;20392;-58
2023/03/11 06:41:29;;;;;;;;;;;;;;;2.07;59.31;96945.88;5081102;28;20434;-59
2023/03/11 06:43:58;;;;;;;;;;;;;;;2.01;59.58;96946.19;5085706;28;19935;-56
2023/03/11 06:46:27;;;;;;;;;;;;;;;1.92;59.78;96939.81;5075085;28;20297;-56
2023/03/11 06:48:56;;;;;;;;;;;;;;;2.05;59.87;96950.72;5086871;28;19928;-56
2023/03/11 06:51:24;;;;;;;;;;;;;;;2.01;59.54;96956.91;5085962;28;19928;-56
2023/03/11 06:53:52;;;;;;;;;;;;;;;1.97;59.90;96955.84;5097292;28;19924;-58
2023/03/11 06:56:23;;;;;;;;;;;;;;;1.84;60.41;96963.44;5082822;28;19925;-59
2023/03/11 06:58:58;;;;;;;;;;;;;;;1.78;60.83;96967.25;5080917;28;19924;-56
2023/03/11 07:01:30;;;;;;;;;;;;;;;1.76;60.86;96963.25;5078887;28;19930;-57
2023/03/11 07:04:00;;;;;;;;;;;;;;;1.95;60.78;96974.91;5087455;28;19928;-56
2023/03/11 07:06:29;;;;;;;;;;;;;;;1.77;60.78;96980.91;5079980;28;19924;-56
2023/03/11 07:09:21;;;;;;;;;;;;;;;1.89;61.11;96984.06;5070963;28;20334;-57
2023/03/11 07:11:54;;;;;;;;;;;;;;;1.96;60.56;96984.53;5086314;28;19932;-57
2023/03/11 07:14:28;;;;;;;;;;;;;;;2.07;60.33;96986.06;5077192;28;20013;-55
2023/03/11 07:16:57;;;;;;;;;;;;;;;2.06;60.26;96995.19;5065598;28;19928;-56
2023/03/11 07:19:33;;;;;;;;;;;;;;;2.05;60.33;96996.25;5074018;28;19932;-57
2023/03/11 07:22:01;;;;;;;;;;;;;;;2.08;60.27;96997.59;5077771;28;19924;-57
2023/03/11 07:24:29;;;;;;;;;;;;;;;2.30;60.38;96995.28;5082049;28;19924;-57
2023/03/11 07:26:58;;;;;;;;;;;;;;;2.48;59.51;96993.78;5074897;28;19925;-56
2023/03/11 07:29:26;;;;;;;;;;;;;;;2.49;58.95;97006.09;5086465;28;19931;-57
2023/03/11 07:31:54;;;;;;;;;;;;;;;2.46;59.35;97004.00;5075438;28;19928;-58
2023/03/11 07:34:22;;;;;;;;;;;;;;;2.52;59.23;97007.44;5081846;28;20365;-57
2023/03/11 07:36:49;;;;;;;;;;;;;;;2.68;58.86;97011.59;5097089;28;19928;-56
2023/03/11 07:39:17;;;;;;;;;;;;;;;2.75;58.92;97017.41;5088548;28;20388;-56
2023/03/11 07:41:45;;;;;;;;;;;;;;;2.70;59.31;97017.44;5079898;28;19925;-57
2023/03/11 07:44:15;;;;;;;;;;;;;;;2.85;58.86;97030.72;5076947;28;19924;-61
2023/03/11 07:46:44;;;;;;;;;;;;;;;2.97;58.02;97030.34;5081884;28;19935;-57
2023/03/11 07:49:12;;;;;;;;;;;;;;;2.63;58.08;97036.56;5097771;28;20434;-58
2023/03/11 07:51:42;;;;;;;;;;;;;;;2.54;58.94;97048.97;5080694;28;19969;-57
2023/03/11 07:54:10;;;;;;;;;;;;;;;2.48;59.21;97050.09;5086847;28;20286;-57
2023/03/11 07:56:38;;;;;;;;;;;;;;;2.58;59.08;97050.00;5083998;28;19925;-56
2023/03/11 07:59:06;;;;;;;;;;;;;;;2.54;58.72;97059.69;5084639;28;19932;-58
2023/03/11 08:01:39;;;;;;;;;;;;;;;2.59;59.26;97061.53;5077058;28;19924;-57
2023/03/11 08:04:07;;;;;;;;;;;;;;;2.63;58.86;97068.75;5087240;28;19924;-57
2023/03/11 08:06:36;;;;;;;;;;;;;;;2.66;58.65;97063.88;5086875;28;19935;-58
2023/03/11 08:09:04;;;;;;;;;;;;;;;2.73;58.28;97077.78;5081964;28;19939;-56
2023/03/11 08:11:33;;;;;;;;;;;;;;;2.70;58.47;97075.66;5083192;28;19978;-60
2023/03/11 08:14:01;;;;;;;;;;;;;;;2.75;58.00;97072.94;5088435;28;19928;-56
2023/03/11 08:16:29;;;;;;;;;;;;;;;2.61;58.33;97078.97;5071696;28;19936;-58
2023/03/11 08:18:59;;;;;;;;;;;;;;;2.79;58.51;97090.06;5068334;28;19924;-56
2023/03/11 08:21:27;;;;;;;;;;;;;;;2.86;58.20;97090.53;5065472;28;19924;-57
2023/03/11 08:23:57;;;;;;;;;;;;;;;2.91;57.65;97095.88;5060073;28;19932;-60
2023/03/11 08:26:24;;;;;;;;;;;;;;;2.91;57.44;97092.38;5066780;28;19929;-56
2023/03/11 08:28:52;;;;;;;;;;;;;;;2.87;57.93;97105.56;5068136;28;19986;-56
2023/03/11 08:31:20;;;;;;;;;;;;;;;2.89;56.52;97108.78;5070273;28;19925;-58
2023/03/11 08:33:49;;;;;;;;;;;;;;;2.93;55.73;97114.34;5090029;28;19939;-56
2023/03/11 08:36:20;;;;;;;;;;;;;;;2.95;55.65;97107.66;5089840;28;19924;-56
2023/03/11 08:38:48;;;;;;;;;;;;;;;2.88;55.65;97117.91;5080885;28;20418;-56
2023/03/11 08:41:16;;;;;;;;;;;;;;;2.84;55.98;97112.28;5084044;28;20406;-62
2023/03/11 08:43:43;;;;;;;;;;;;;;;2.90;54.76;97115.72;5084066;28;19928;-57
2023/03/11 08:46:15;;;;;;;;;;;;;;;2.97;54.17;97112.72;5077175;28;19928;-56
2023/03/11 08:48:43;;;;;;;;;;;;;;;3.27;53.54;97125.06;5100317;28;19973;-58
2023/03/11 08:51:11;;;;;;;;;;;;;;;3.47;53.68;97124.06;5099621;28;20332;-57
2023/03/11 08:53:40;;;;;;;;;;;;;;;3.57;53.59;97124.78;5082329;28;19928;-56
2023/03/11 08:56:08;;;;;;;;;;;;;;;3.60;53.54;97120.69;5097286;28;19932;-57
2023/03/11 08:58:36;;;;;;;;;;;;;;;3.87;52.34;97120.91;5100455;28;19938;-58
2023/03/11 09:01:04;;;;;;;;;;;;;;;3.76;51.37;97126.72;5099307;28;19928;-57
2023/03/11 09:03:34;;;;;;;;;;;;;;;3.67;51.26;97135.41;5109702;28;20346;-57
2023/03/11 09:06:02;;;;;;;;;;;;;;;3.54;51.04;97140.66;5102046;28;19960;-57
2023/03/11 09:08:30;;;;;;;;;;;;;;;3.66;50.84;97133.78;5099114;28;19935;-56
2023/03/11 09:10:59;;;;;;;;;;;;;;;3.81;51.19;97137.41;5107652;28;19946;-57
2023/03/11 09:13:27;;;;;;;;;;;;;;;3.81;51.17;97145.44;5089478;28;19931;-56
2023/03/11 09:15:55;;;;;;;;;;;;;;;3.70;50.11;97141.28;5097330;28;19966;-57
2023/03/11 09:18:23;;;;;;;;;;;;;;;3.55;50.52;97142.25;5077485;28;19924;-56
2023/03/11 09:20:56;;;;;;;;;;;;;;;3.83;49.58;97144.06;5078206;28;19939;-56
2023/03/11 09:23:25;;;;;;;;;;;;;;;4.07;48.46;97148.66;5087084;28;19935;-55
2023/03/11 09:25:53;;;;;;;;;;;;;;;3.82;49.18;97144.38;5083571;28;20418;-55
2023/03/11 09:28:22;;;;;;;;;;;;;;;3.68;49.32;97141.56;5083290;28;19954;-61
2023/03/11 09:30:49;;;;;;;;;;;;;;;3.30;50.06;97154.03;5083601;28;19958;-56
2023/03/11 09:33:17;;;;;;;;;;;;;;;3.29;50.70;97155.91;5093623;28;19946;-57
2023/03/11 09:35:45;;;;;;;;;;;;;;;3.34;50.92;97152.38;5092703;28;19970;-55
2023/03/11 09:38:13;;;;;;;;;;;;;;;3.21;50.17;97151.16;5090292;28;19935;-56
2023/03/11 09:40:46;;;;;;;;;;;;;;;3.14;51.61;97156.03;5085008;28;20675;-55
2023/03/11 09:43:15;;;;;;;;;;;;;;;3.10;51.42;97163.88;5087426;28;19946;-56
2023/03/11 09:45:45;;;;;;;;;;;;;;;3.04;52.43;97173.03;5079081;28;19962;-57
2023/03/11 09:48:16;;;;;;;;;;;;;;;2.88;54.47;97160.84;5084500;28;19934;-56
2023/03/11 09:50:44;;;;;;;;;;;;;;;3.16;55.15;97161.94;5083648;28;19942;-56
2023/03/11 09:53:17;;;;;;;;;;;;;;;3.32;53.86;97170.66;5083224;28;19940;-55
2023/03/11 09:55:46;;;;;;;;;;;;;;;3.34;53.68;97166.59;5084389;28;19958;-55
2023/03/11 09:58:15;;;;;;;;;;;;;;;3.62;53.21;97170.38;5075374;28;19924;-56
2023/03/11 10:00:45;;;;;;;;;;;;;;;3.65;53.11;97174.38;5073537;28;19962;-56
2023/03/11 10:03:16;;;;;;;;;;;;;;;3.62;51.30;97181.13;5079532;28;20297;-55
2023/03/11 10:05:44;;;;;;;;;;;;;;;3.46;50.84;97176.16;5096136;28;20438;-63
2023/03/11 10:08:14;;;;;;;;;;;;;;;3.23;51.35;97199.19;5088970;28;19928;-55
2023/03/11 10:10:43;;;;;;;;;;;;;;;2.97;53.80;97207.44;5084524;28;20270;-55
2023/03/11 10:13:15;;;;;;;;;;;;;;;2.91;55.28;97230.00;5082409;28;20381;-56
2023/03/11 10:15:47;;;;;;;;;;;;;;;2.68;58.44;97223.44;5080910;28;20304;-55
2023/03/11 10:18:19;;;;;;;;;;;;;;;2.63;60.89;97229.66;5082170;28;19924;-60
2023/03/11 10:20:49;;;;;;;;;;;;;;;2.52;62.62;97228.09;5077052;28;20285;-57
2023/03/11 10:23:20;;;;;;;;;;;;;;;2.62;64.07;97224.56;5076655;28;20018;-57
2023/03/11 10:25:54;;;;;;;;;;;;;;;2.69;63.35;97224.25;5081413;28;19932;-56
2023/03/11 10:28:22;;;;;;;;;;;;;;;2.88;62.11;97214.50;5088803;28;19924;-57
2023/03/11 10:30:51;;;;;;;;;;;;;;;3.25;60.75;97226.53;5065813;28;19928;-56
2023/03/11 10:33:22;;;;;;;;;;;;;;;3.54;59.61;97221.22;5082131;28;19931;-56
2023/03/11 10:35:51;;;;;;;;;;;;;;;3.58;58.10;97215.00;5082857;28;20315;-56
2023/03/11 10:38:19;;;;;;;;;;;;;;;3.88;58.33;97215.75;5077858;28;20405;-56
2023/03/11 10:40:48;;;;;;;;;;;;;;;4.29;57.16;97212.63;5078185;28;19978;-56
2023/03/11 10:43:16;;;;;;;;;;;;;;;4.28;55.72;97219.09;5084342;28;19924;-55
2023/03/11 10:45:45;;;;;;;;;;;;;;;4.07;55.11;97216.66;5076010;28;19930;-56
2023/03/11 10:48:15;;;;;;;;;;;;;;;3.45;56.40;97218.31;5082947;28;19978;-57
2023/03/11 10:50:49;;;;;;;;;;;;;;;3.34;56.56;97211.44;5078636;28;19935;-57
2023/03/11 10:53:17;;;;;;;;;;;;;;;3.48;57.35;97207.03;5078683;28;19936;-56
2023/03/11 10:55:46;;;;;;;;;;;;;;;3.47;55.19;97210.00;5075194;28;20403;-57
2023/03/11 10:58:15;;;;;;;;;;;;;;;3.48;55.58;97209.72;5076306;28;19931;-56
2023/03/11 11:00:43;;;;;;;;;;;;;;;3.75;54.06;97205.72;5077169;28;19924;-57
2023/03/11 11:03:20;;;;;;;;;;;;;;;3.82;53.32;97211.53;5079988;28;20365;-56
2023/03/11 11:06:06;;;;;;;;;;;;;;;3.80;52.76;97198.41;5078960;28;19928;-57
2023/03/11 11:08:35;;;;;;;;;;;;;;;4.10;52.20;97208.03;5073968;28;20292;-57
2023/03/11 11:11:04;;;;;;;;;;;;;;;4.54;50.26;97212.31;5076765;28;19943;-56
2023/03/11 11:13:33;;;;;;;;;;;;;;;5.31;48.37;97209.31;5078785;28;20323;-57
2023/03/11 11:16:01;;;;;;;;;;;;;;;5.58;46.04;97197.78;5072378;28;19958;-56
2023/03/11 11:18:30;;;;;;;;;;;;;;;5.50;46.06;97206.56;5079758;28;19939;-56
2023/03/11 11:21:02;;;;;;;;;;;;;;;5.07;44.91;97206.72;5083658;28;20022;-56
2023/03/11 11:23:36;;;;;;;;;;;;;;;4.65;45.21;97215.66;5082812;28;20533;-57
2023/03/11 11:26:06;;;;;;;;;;;;;;;4.46;46.80;97210.25;5087163;28;19993;-60
2023/03/11 11:28:37;;;;;;;;;;;;;;;4.35;47.83;97220.34;5081390;28;19958;-57
2023/03/11 11:31:05;;;;;;;;;;;;;;;4.16;47.22;97217.63;5078635;28;19958;-58
2023/03/11 11:33:34;;;;;;;;;;;;;;;4.09;47.37;97210.97;5079914;28;20025;-66
2023/03/11 11:36:02;;;;;;;;;;;;;;;3.85;48.49;97221.72;5083188;28;20400;-57
2023/03/11 11:38:31;;;;;;;;;;;;;;;3.91;49.32;97225.97;5081024;28;20435;-57
2023/03/11 11:41:01;;;;;;;;;;;;;;;4.00;48.74;97218.09;5083611;28;19935;-57
2023/03/11 11:43:32;;;;;;;;;;;;;;;3.78;49.68;97218.56;5081993;28;19931;-58
2023/03/11 11:46:02;;;;;;;;;;;;;;;3.95;49.48;97224.31;5077647;28;19924;-56
2023/03/11 11:48:40;;;;;;;;;;;;;;;3.91;49.54;97223.28;5076244;28;19961;-58
2023/03/11 11:51:10;;;;;;;;;;;;;;;4.06;50.05;97209.66;5076598;28;19954;-56
2023/03/11 11:53:39;;;;;;;;;;;;;;;4.37;50.06;97217.38;5075325;28;19931;-58
2023/03/11 11:56:08;;;;;;;;;;;;;;;4.41;49.23;97216.50;5081309;28;19953;-55
2023/03/11 11:58:36;;;;;;;;;;;;;;;4.45;48.23;97208.66;5080024;28;19942;-57
2023/03/11 12:01:07;;;;;;;;;;;;;;;4.57;47.18;97208.22;5071769;28;19932;-56
2023/03/11 12:03:53;;;;;;;;;;;;;;;4.20;48.06;97204.38;5098117;28;19942;-56
2023/03/11 12:06:22;;;;;;;;;;;;;;;4.37;47.69;97201.25;5082962;28;19924;-56
2023/03/11 12:08:52;;;;;;;;;;;;;;;4.48;47.74;97205.41;5080419;28;19947;-56
2023/03/11 12:11:22;;;;;;;;;;;;;;;4.35;48.62;97200.72;5078435;28;19925;-56
2023/03/11 12:13:53;;;;;;;;;;;;;;;4.20;49.45;97197.13;5084068;28;19997;-56
2023/03/11 12:16:23;;;;;;;;;;;;;;;4.02;49.89;97202.47;5075933;28;19954;-55
2023/03/11 12:18:52;;;;;;;;;;;;;;;3.96;50.34;97212.47;5077213;28;20377;-55
2023/03/11 12:21:26;;;;;;;;;;;;;;;3.99;50.71;97211.88;5078920;28;19924;-56
2023/03/11 12:23:57;;;;;;;;;;;;;;;3.86;50.16;97212.56;5081723;28;20370;-55
2023/03/11 12:26:26;;;;;;;;;;;;;;;4.01;50.35;97209.72;5081407;28;19933;-55
2023/03/11 12:28:55;;;;;;;;;;;;;;;4.23;49.29;97211.88;5082076;28;19928;-56
2023/03/11 12:31:23;;;;;;;;;;;;;;;4.36;49.32;97210.38;5078353;28;19924;-56
2023/03/11 12:33:54;;;;;;;;;;;;;;;4.46;50.42;97216.44;5083828;28;19924;-57
2023/03/11 12:36:23;;;;;;;;;;;;;;;4.43;50.19;97216.22;5081750;28;19924;-57
2023/03/11 12:38:51;;;;;;;;;;;;;;;4.35;49.72;97219.53;5075664;28;19977;-56
2023/03/11 12:41:35;;;;;;;;;;;;;;;4.13;49.79;97220.88;5085717;28;19931;-56
2023/03/11 12:44:13;;;;;;;;;;;;;;;4.11;49.73;97208.81;5086780;28;20309;-56
2023/03/11 12:47:01;;;;;;;;;;;;;;;4.13;50.46;97212.00;5073882;28;20021;-56
2023/03/11 12:49:30;;;;;;;;;;;;;;;4.26;50.62;97210.50;5082690;28;19945;-56
2023/03/11 12:52:01;;;;;;;;;;;;;;;4.27;50.02;97217.50;5078307;28;20028;-56
2023/03/11 12:54:30;;;;;;;;;;;;;;;4.31;50.18;97213.94;5081605;28;20014;-55
2023/03/11 12:57:00;;;;;;;;;;;;;;;4.42;49.89;97209.22;5076736;28;19936;-59
2023/03/11 12:59:49;;;;;;;;;;;;;;;4.57;47.69;97214.41;5082901;28;20341;-57
2023/03/11 13:02:22;;;;;;;;;;;;;;;4.50;47.36;97216.66;5075410;28;19968;-56
2023/03/11 13:04:51;;;;;;;;;;;;;;;4.48;47.43;97216.16;5076553;28;19935;-56
2023/03/11 13:07:37;;;;;;;;;;;;;;;4.54;46.84;97223.06;5079860;28;19964;-57
2023/03/11 13:10:13;;;;;;;;;;;;;;;4.46;46.73;97218.31;5087593;28;19939;-56